sensor_id;sensor_type;location;lat;lon;timestamp;pressure;altitude;pressure_sealevel;temperature;humidity
24302;BME280;12421;49.732;20.078;2022-11-20T00:02:10;96498.20;;;-4.52;78.13
24302;BME280;12421;49.732;20.078;2022-11-20T00:12:14;96495.50;;;-4.60;78.44
24302;BME280;12421;49.732;20.078;2022-11-20T00:22:17;96496.06;;;-4.42;78.59
24302;BME280;12421;49.732;20.078;2022-11-20T00:32:21;96485.88;;;-4.35;78.30
24302;BME280;12421;49.732;20.078;2022-11-20T00:42:26;96492.56;;;-4.43;78.26
24302;BME280;12421;49.732;20.078;2022-11-20T00:52:30;96490.41;;;-4.50;78.65
24302;BME280;12421;49.732;20.078;2022-11-20T01:02:34;96485.69;;;-4.26;78.79
24302;BME280;12421;49.732;20.078;2022-11-20T01:12:38;96484.11;;;-4.14;78.77
24302;BME280;12421;49.732;20.078;2022-11-20T01:22:42;96484.78;;;-4.10;78.66
24302;BME280;12421;49.732;20.078;2022-11-20T01:32:46;96468.74;;;-3.94;79.00
24302;BME280;12421;49.732;20.078;2022-11-20T01:42:59;96458.14;;;-3.80;78.57
24302;BME280;12421;49.732;20.078;2022-11-20T01:53:32;96455.23;;;-3.94;78.52
24302;BME280;12421;49.732;20.078;2022-11-20T02:03:37;96463.56;;;-3.86;78.63
24302;BME280;12421;49.732;20.078;2022-11-20T02:13:41;96455.70;;;-3.66;78.87
24302;BME280;12421;49.732;20.078;2022-11-20T02:24:05;96453.13;;;-3.71;78.53
24302;BME280;12421;49.732;20.078;2022-11-20T02:34:09;96451.16;;;-3.74;79.03
24302;BME280;12421;49.732;20.078;2022-11-20T02:44:13;96439.59;;;-3.57;78.90
24302;BME280;12421;49.732;20.078;2022-11-20T02:54:17;96442.67;;;-3.76;78.47
24302;BME280;12421;49.732;20.078;2022-11-20T03:04:21;96434.92;;;-4.05;78.32
24302;BME280;12421;49.732;20.078;2022-11-20T03:14:25;96427.62;;;-4.22;78.58
24302;BME280;12421;49.732;20.078;2022-11-20T03:24:29;96428.42;;;-4.28;78.62
24302;BME280;12421;49.732;20.078;2022-11-20T03:34:33;96427.55;;;-4.42;78.49
24302;BME280;12421;49.732;20.078;2022-11-20T03:44:37;96415.52;;;-4.65;78.53
24302;BME280;12421;49.732;20.078;2022-11-20T03:54:40;96417.73;;;-4.87;78.86
24302;BME280;12421;49.732;20.078;2022-11-20T04:04:44;96422.34;;;-4.83;79.34
24302;BME280;12421;49.732;20.078;2022-11-20T04:14:48;96410.63;;;-4.81;78.99
24302;BME280;12421;49.732;20.078;2022-11-20T04:24:52;96408.86;;;-4.86;79.41
24302;BME280;12421;49.732;20.078;2022-11-20T04:34:55;96409.58;;;-4.73;79.67
24302;BME280;12421;49.732;20.078;2022-11-20T04:44:59;96415.43;;;-4.63;79.52
24302;BME280;12421;49.732;20.078;2022-11-20T04:55:04;96410.77;;;-4.59;79.74
24302;BME280;12421;49.732;20.078;2022-11-20T05:05:08;96409.65;;;-4.44;79.99
24302;BME280;12421;49.732;20.078;2022-11-20T05:15:11;96402.32;;;-4.20;80.22
24302;BME280;12421;49.732;20.078;2022-11-20T05:25:15;96389.70;;;-4.19;80.09
24302;BME280;12421;49.732;20.078;2022-11-20T05:35:19;96376.09;;;-4.06;80.14
24302;BME280;12421;49.732;20.078;2022-11-20T05:45:23;96372.12;;;-3.98;79.88
24302;BME280;12421;49.732;20.078;2022-11-20T05:55:27;96378.59;;;-4.03;79.88
24302;BME280;12421;49.732;20.078;2022-11-20T06:05:33;96374.52;;;-4.12;79.82
24302;BME280;12421;49.732;20.078;2022-11-20T06:15:36;96360.34;;;-4.06;80.22
24302;BME280;12421;49.732;20.078;2022-11-20T06:25:41;96353.01;;;-4.00;80.14
24302;BME280;12421;49.732;20.078;2022-11-20T06:35:46;96349.08;;;-4.00;80.16
24302;BME280;12421;49.732;20.078;2022-11-20T06:45:54;96350.11;;;-3.99;80.14
24302;BME280;12421;49.732;20.078;2022-11-20T06:55:58;96341.16;;;-3.76;80.42
24302;BME280;12421;49.732;20.078;2022-11-20T07:06:03;96338.73;;;-3.67;79.89
24302;BME280;12421;49.732;20.078;2022-11-20T07:16:08;96340.26;;;-3.62;80.15
24302;BME280;12421;49.732;20.078;2022-11-20T07:26:12;96352.14;;;-3.40;80.32
24302;BME280;12421;49.732;20.078;2022-11-20T07:36:16;96355.32;;;-3.12;80.38
24302;BME280;12421;49.732;20.078;2022-11-20T07:46:20;96366.48;;;-2.90;80.38
24302;BME280;12421;49.732;20.078;2022-11-20T07:56:24;96360.77;;;-2.40;80.55
24302;BME280;12421;49.732;20.078;2022-11-20T08:06:28;96345.52;;;-1.96;80.25
24302;BME280;12421;49.732;20.078;2022-11-20T08:16:31;96341.23;;;-1.84;79.30
24302;BME280;12421;49.732;20.078;2022-11-20T08:26:36;96349.64;;;-1.53;79.94
24302;BME280;12421;49.732;20.078;2022-11-20T08:36:41;96334.45;;;-1.13;79.45
24302;BME280;12421;49.732;20.078;2022-11-20T08:46:45;96326.55;;;-0.76;79.12
24302;BME280;12421;49.732;20.078;2022-11-20T08:56:50;96324.98;;;-0.30;78.31
24302;BME280;12421;49.732;20.078;2022-11-20T09:06:55;96317.55;;;0.03;78.08
24302;BME280;12421;49.732;20.078;2022-11-20T09:16:59;96310.11;;;0.40;77.30
24302;BME280;12421;49.732;20.078;2022-11-20T09:27:04;96306.18;;;0.93;76.99
24302;BME280;12421;49.732;20.078;2022-11-20T09:37:08;96291.66;;;1.51;76.13
24302;BME280;12421;49.732;20.078;2022-11-20T09:57:37;96295.58;;;2.15;74.39
24302;BME280;12421;49.732;20.078;2022-11-20T10:07:52;96299.55;;;2.63;73.74
24302;BME280;12421;49.732;20.078;2022-11-20T10:49:31;96296.98;;;3.06;71.72
24302;BME280;12421;49.732;20.078;2022-11-20T11:00:04;96288.66;;;3.09;71.25
24302;BME280;12421;49.732;20.078;2022-11-20T11:10:20;96274.06;;;3.27;71.34
24302;BME280;12421;49.732;20.078;2022-11-20T11:20:26;96265.23;;;3.62;71.08
24302;BME280;12421;49.732;20.078;2022-11-20T11:30:42;96249.71;;;3.81;70.65
24302;BME280;12421;49.732;20.078;2022-11-20T11:40:46;96239.17;;;3.91;70.50
24302;BME280;12421;49.732;20.078;2022-11-20T11:50:50;96228.45;;;4.04;70.61
24302;BME280;12421;49.732;20.078;2022-11-20T12:11:42;96205.91;;;4.29;69.95
24302;BME280;12421;49.732;20.078;2022-11-20T12:32:31;96214.27;;;4.28;69.74
24302;BME280;12421;49.732;20.078;2022-11-20T12:43:01;96210.61;;;4.30;69.95
24302;BME280;12421;49.732;20.078;2022-11-20T13:03:55;96206.23;;;4.15;69.79
24302;BME280;12421;49.732;20.078;2022-11-20T13:24:29;96193.19;;;4.04;70.26
24302;BME280;12421;49.732;20.078;2022-11-20T13:34:34;96178.89;;;3.81;69.88
24302;BME280;12421;49.732;20.078;2022-11-20T13:44:48;96172.36;;;3.48;70.80
24302;BME280;12421;49.732;20.078;2022-11-20T13:55:10;96155.81;;;3.34;71.41
24302;BME280;12421;49.732;20.078;2022-11-20T14:05:20;96145.01;;;3.22;71.99
24302;BME280;12421;49.732;20.078;2022-11-20T14:15:30;96161.68;;;2.97;72.75
24302;BME280;12421;49.732;20.078;2022-11-20T14:25:36;96170.70;;;2.47;73.10
24302;BME280;12421;49.732;20.078;2022-11-20T14:35:52;96162.27;;;1.96;73.91
24302;BME280;12421;49.732;20.078;2022-11-20T14:46:07;96157.27;;;1.35;75.12
24302;BME280;12421;49.732;20.078;2022-11-20T14:56:23;96147.83;;;0.99;75.90
24302;BME280;12421;49.732;20.078;2022-11-20T15:06:29;96155.59;;;0.74;76.61
24302;BME280;12421;49.732;20.078;2022-11-20T15:16:35;96152.23;;;0.44;77.21
24302;BME280;12421;49.732;20.078;2022-11-20T15:26:41;96149.34;;;0.14;77.85
24302;BME280;12421;49.732;20.078;2022-11-20T15:36:47;96150.45;;;-0.01;78.31
24302;BME280;12421;49.732;20.078;2022-11-20T15:46:53;96132.38;;;-0.29;78.69
24302;BME280;12421;49.732;20.078;2022-11-20T15:56:59;96117.55;;;-0.39;79.52
24302;BME280;12421;49.732;20.078;2022-11-20T16:07:05;96110.66;;;-0.29;80.51
24302;BME280;12421;49.732;20.078;2022-11-20T16:17:12;96110.13;;;-0.39;80.20
24302;BME280;12421;49.732;20.078;2022-11-20T16:27:17;96136.89;;;-0.37;80.19
24302;BME280;12421;49.732;20.078;2022-11-20T16:37:22;96136.58;;;-0.17;81.37
24302;BME280;12421;49.732;20.078;2022-11-20T16:47:28;96124.20;;;-0.03;81.45
24302;BME280;12421;49.732;20.078;2022-11-20T16:57:32;96126.65;;;0.10;81.48
24302;BME280;12421;49.732;20.078;2022-11-20T17:07:38;96134.23;;;0.30;81.60
24302;BME280;12421;49.732;20.078;2022-11-20T17:17:43;96124.98;;;0.46;81.03
24302;BME280;12421;49.732;20.078;2022-11-20T17:27:53;96123.58;;;0.56;81.51
24302;BME280;12421;49.732;20.078;2022-11-20T17:37:58;96111.66;;;0.57;81.30
24302;BME280;12421;49.732;20.078;2022-11-20T17:48:03;96105.98;;;0.58;81.05
24302;BME280;12421;49.732;20.078;2022-11-20T17:58:09;96098.30;;;0.29;81.21
24302;BME280;12421;49.732;20.078;2022-11-20T18:08:14;96098.08;;;0.03;81.58
24302;BME280;12421;49.732;20.078;2022-11-20T18:18:18;96101.30;;;-0.12;81.36
24302;BME280;12421;49.732;20.078;2022-11-20T18:28:25;96101.13;;;-0.42;81.01
24302;BME280;12421;49.732;20.078;2022-11-20T18:38:30;96104.17;;;-0.63;81.28
24302;BME280;12421;49.732;20.078;2022-11-20T18:48:35;96101.89;;;-0.92;81.66
24302;BME280;12421;49.732;20.078;2022-11-20T18:58:42;96095.09;;;-1.14;82.24
24302;BME280;12421;49.732;20.078;2022-11-20T19:08:47;96089.39;;;-1.31;82.46
24302;BME280;12421;49.732;20.078;2022-11-20T19:18:53;96079.63;;;-1.45;82.46
24302;BME280;12421;49.732;20.078;2022-11-20T19:29:01;96070.03;;;-1.59;82.46
24302;BME280;12421;49.732;20.078;2022-11-20T19:39:09;96057.64;;;-1.67;82.92
24302;BME280;12421;49.732;20.078;2022-11-20T19:49:15;96073.21;;;-1.71;83.17
24302;BME280;12421;49.732;20.078;2022-11-20T19:59:20;96078.89;;;-1.63;84.10
24302;BME280;12421;49.732;20.078;2022-11-20T20:09:26;96086.85;;;-1.54;83.62
24302;BME280;12421;49.732;20.078;2022-11-20T20:19:35;96083.90;;;-1.47;84.42
24302;BME280;12421;49.732;20.078;2022-11-20T20:29:40;96085.30;;;-1.45;84.26
24302;BME280;12421;49.732;20.078;2022-11-20T20:39:46;96088.29;;;-1.34;84.87
24302;BME280;12421;49.732;20.078;2022-11-20T20:49:51;96077.12;;;-1.17;84.67
24302;BME280;12421;49.732;20.078;2022-11-20T20:59:55;96080.94;;;-0.98;84.72
24302;BME280;12421;49.732;20.078;2022-11-20T21:10:00;96081.98;;;-0.80;85.24
24302;BME280;12421;49.732;20.078;2022-11-20T21:20:07;96078.23;;;-0.59;85.39
24302;BME280;12421;49.732;20.078;2022-11-20T21:30:33;96052.98;;;-0.44;85.13
24302;BME280;12421;49.732;20.078;2022-11-20T21:40:37;96050.19;;;-0.26;85.05
24302;BME280;12421;49.732;20.078;2022-11-20T21:50:42;96052.73;;;-0.17;84.94
24302;BME280;12421;49.732;20.078;2022-11-20T22:00:46;96064.63;;;-0.18;85.08
24302;BME280;12421;49.732;20.078;2022-11-20T22:10:57;96078.26;;;-0.08;85.25
24302;BME280;12421;49.732;20.078;2022-11-20T22:21:04;96084.11;;;0.03;84.69
24302;BME280;12421;49.732;20.078;2022-11-20T22:31:10;96081.34;;;0.02;84.57
24302;BME280;12421;49.732;20.078;2022-11-20T22:41:17;96081.75;;;0.07;84.37
24302;BME280;12421;49.732;20.078;2022-11-20T22:51:31;96086.09;;;0.09;84.26
24302;BME280;12421;49.732;20.078;2022-11-20T23:01:36;96080.91;;;0.08;83.99
24302;BME280;12421;49.732;20.078;2022-11-20T23:11:40;96079.98;;;0.03;83.89
24302;BME280;12421;49.732;20.078;2022-11-20T23:21:43;96071.77;;;0.09;84.30
24302;BME280;12421;49.732;20.078;2022-11-20T23:31:47;96061.05;;;0.08;83.94
24302;BME280;12421;49.732;20.078;2022-11-20T23:41:51;96055.52;;;0.17;83.77
24302;BME280;12421;49.732;20.078;2022-11-20T23:51:55;96055.70;;;-0.04;83.00
